Bright Hope — HPTM — position and weather

sailwx.info

Track history (hours):
 
Tides and Currents Weather Stations Pressure Air Temp Water Temp Dewpoint Dewpoint Depression Visibility Wind Speed Wind Dir Waves Ship Positions

Bright Hope

Last reported at 2018-May-17 04:56 UTC. Time now 2018-May-25 16:52 UTC.
Position N 19°53' E 065°07'.
Warning: this ship's position is 8 days out of date.

Length 170 m; draft 9.2 m.

Type: Cargo ship. MMSI: 371117000.

Date/timePositionNaut miles runAvg speedWind from/ knotsBaromVisibWave heightAir tempDewpointWater temp
2018-May-17 04:56N 19°53' E 065°07'811.5
2018-May-17 04:14N 19°47' E 065°13'1511.3
2018-May-17 02:53N 19°35' E 065°24'411.1
2018-May-17 02:30N 19°32' E 065°27'711.3
2018-May-17 01:52N 19°27' E 065°32'5311.3
2018-May-16 21:14N 18°48' E 066°09'611.5
2018-May-16 20:43N 18°44' E 066°14'311.5
2018-May-16 20:27N 18°42' E 066°16'511.7
2018-May-16 20:00N 18°38' E 066°20'10211.7
2018-May-16 11:14N 17°22' E 067°32'1311.0
2018-May-16 10:01N 17°13' E 067°41'016.3
2018-May-16 10:01N 17°13' E 067°42'5310.6
2018-May-16 05:02N 16°33' E 068°19'010.2
2018-May-16 05:00N 16°33' E 068°19'510.4
2018-May-16 04:29N 16°29' E 068°23'1510.4
2018-May-16 03:01N 16°18' E 068°33'110.9
2018-May-16 02:53N 16°17' E 068°34'2810.9
2018-May-16 00:20N 15°56' E 068°54'811.0
2018-May-15 23:38N 15°51' E 068°59'311.1
2018-May-15 23:24N 15°49' E 069°01'411.1
2018-May-15 23:00N 15°46' E 069°04'611.1
2018-May-15 22:30N 15°41' E 069°08'910.8
2018-May-15 21:42N 15°35' E 069°14'310.7
2018-May-15 21:23N 15°32' E 069°17'410.6
2018-May-15 20:58N 15°29' E 069°20'610.7
2018-May-15 20:27N 15°25' E 069°23'510.5
2018-May-15 19:59N 15°21' E 069°27'5911.2
2018-May-15 14:41N 14°38' E 070°08'411.7
2018-May-15 14:22N 14°35' E 070°11'511.7
2018-May-15 13:58N 14°31' E 070°14'511.7
2018-May-15 13:30N 14°27' E 070°18'  
2018-May-07 12:07N 01°19' E 103°19'312.8
2018-May-07 11:54N 01°17' E 103°22'512.3
2018-May-07 11:29N 01°14' E 103°26'612.0
2018-May-07 10:59N 01°13' E 103°32'612.5
2018-May-07 10:29N 01°11' E 103°38'612.3
2018-May-07 10:00N 01°09' E 103°43'612.8
2018-May-07 09:31N 01°11' E 103°49'611.1
2018-May-07 09:01N 01°14' E 103°54'2 3.7
2018-May-07 08:31N 01°16' E 103°54'0 0.0
2018-May-07 07:58N 01°16' E 103°54'0 0.1
2018-May-07 07:29N 01°16' E 103°54'0 0.1
2018-May-07 06:58N 01°16' E 103°54'0 0.0
2018-May-07 06:28N 01°16' E 103°54'0 0.0
2018-May-07 05:56N 01°16' E 103°54'0 0.0
2018-May-07 05:29N 01°16' E 103°54'0 0.0
2018-May-07 04:58N 01°16' E 103°54'  
Track history (hours):
 
Tides and Currents Weather Stations Pressure Air Temp Water Temp Dewpoint Dewpoint Depression Visibility Wind Speed Wind Dir Waves Ship Positions

Bright Hope

Last reported at 2018-May-17 04:56 UTC. Time now 2018-May-25 16:52 UTC.
Position N 19°53' E 065°07'.
Warning: this ship's position is 8 days out of date.

Length 170 m; draft 9.2 m.

Type: Cargo ship. MMSI: 371117000.

Date/timePositionNaut miles runAvg speedWind from/ knotsBaromVisibWave heightAir tempDewpointWater temp
2018-May-17 04:56N 19°53' E 065°07'811.5
2018-May-17 04:14N 19°47' E 065°13'1511.3
2018-May-17 02:53N 19°35' E 065°24'411.1
2018-May-17 02:30N 19°32' E 065°27'711.3
2018-May-17 01:52N 19°27' E 065°32'5311.3
2018-May-16 21:14N 18°48' E 066°09'611.5
2018-May-16 20:43N 18°44' E 066°14'311.5
2018-May-16 20:27N 18°42' E 066°16'511.7
2018-May-16 20:00N 18°38' E 066°20'10211.7
2018-May-16 11:14N 17°22' E 067°32'1311.0
2018-May-16 10:01N 17°13' E 067°41'016.3
2018-May-16 10:01N 17°13' E 067°42'5310.6
2018-May-16 05:02N 16°33' E 068°19'010.2
2018-May-16 05:00N 16°33' E 068°19'510.4
2018-May-16 04:29N 16°29' E 068°23'1510.4
2018-May-16 03:01N 16°18' E 068°33'110.9
2018-May-16 02:53N 16°17' E 068°34'2810.9
2018-May-16 00:20N 15°56' E 068°54'811.0
2018-May-15 23:38N 15°51' E 068°59'311.1
2018-May-15 23:24N 15°49' E 069°01'411.1
2018-May-15 23:00N 15°46' E 069°04'611.1
2018-May-15 22:30N 15°41' E 069°08'910.8
2018-May-15 21:42N 15°35' E 069°14'310.7
2018-May-15 21:23N 15°32' E 069°17'410.6
2018-May-15 20:58N 15°29' E 069°20'610.7
2018-May-15 20:27N 15°25' E 069°23'510.5
2018-May-15 19:59N 15°21' E 069°27'5911.2
2018-May-15 14:41N 14°38' E 070°08'411.7
2018-May-15 14:22N 14°35' E 070°11'511.7
2018-May-15 13:58N 14°31' E 070°14'511.7
2018-May-15 13:30N 14°27' E 070°18'  
2018-May-07 12:07N 01°19' E 103°19'312.8
2018-May-07 11:54N 01°17' E 103°22'512.3
2018-May-07 11:29N 01°14' E 103°26'612.0
2018-May-07 10:59N 01°13' E 103°32'612.5
2018-May-07 10:29N 01°11' E 103°38'612.3
2018-May-07 10:00N 01°09' E 103°43'612.8
2018-May-07 09:31N 01°11' E 103°49'611.1
2018-May-07 09:01N 01°14' E 103°54'2 3.7
2018-May-07 08:31N 01°16' E 103°54'0 0.0
2018-May-07 07:58N 01°16' E 103°54'0 0.1
2018-May-07 07:29N 01°16' E 103°54'0 0.1
2018-May-07 06:58N 01°16' E 103°54'0 0.0
2018-May-07 06:28N 01°16' E 103°54'0 0.0
2018-May-07 05:56N 01°16' E 103°54'0 0.0
2018-May-07 05:29N 01°16' E 103°54'0 0.0
2018-May-07 04:58N 01°16' E 103°54'  

Dump ship's entire track history